createdAt,value
2022-10-21T00:01:49.733Z,91.53
2022-10-21T00:04:16.319Z,91.50
2022-10-21T00:06:42.841Z,91.35
2022-10-21T00:09:09.395Z,91.37
2022-10-21T00:11:35.932Z,91.48
2022-10-21T00:14:02.465Z,91.48
2022-10-21T00:16:29.024Z,91.26
2022-10-21T00:18:55.576Z,91.53
2022-10-21T00:21:22.945Z,91.58
2022-10-21T00:23:52.592Z,91.60
2022-10-21T00:26:19.633Z,91.64
2022-10-21T00:28:46.153Z,91.60
2022-10-21T00:31:14.542Z,91.85
2022-10-21T00:33:41.628Z,92.17
2022-10-21T00:36:14.671Z,91.89
2022-10-21T00:38:43.825Z,92.13
2022-10-21T00:41:10.868Z,91.98
2022-10-21T00:43:57.385Z,92.26
2022-10-21T00:46:50.819Z,92.21
2022-10-21T00:49:32.431Z,92.27
2022-10-21T00:52:02.011Z,92.33
2022-10-21T00:54:29.952Z,92.84
2022-10-21T00:56:57.925Z,92.47
2022-10-21T00:59:31.677Z,93.37
2022-10-21T01:01:58.364Z,93.03
2022-10-21T01:04:24.944Z,93.27
2022-10-21T01:06:51.959Z,93.41
2022-10-21T01:09:19.877Z,93.53
2022-10-21T01:11:48.587Z,93.12
2022-10-21T01:14:53.457Z,93.28
2022-10-21T01:17:40.202Z,93.84
2022-10-21T01:20:40.563Z,93.54
2022-10-21T01:23:22.296Z,93.75
2022-10-21T01:26:16.793Z,93.63
2022-10-21T01:29:06.073Z,93.94
2022-10-21T01:31:43.170Z,93.84
2022-10-21T01:34:14.339Z,94.16
2022-10-21T01:36:48.463Z,93.81
2022-10-21T01:39:25.499Z,94.05
2022-10-21T01:42:05.065Z,94.17
2022-10-21T01:44:41.092Z,94.38
2022-10-21T01:47:22.296Z,94.39
2022-10-21T01:49:55.361Z,94.58
2022-10-21T01:52:22.593Z,94.68
2022-10-21T01:54:58.638Z,94.40
2022-10-21T01:57:29.898Z,94.53
2022-10-21T01:59:58.740Z,94.28
2022-10-21T02:02:29.835Z,94.26
2022-10-21T02:05:01.194Z,94.17
2022-10-21T02:07:28.683Z,94.12
2022-10-21T02:09:55.183Z,94.19
2022-10-21T02:12:24.898Z,94.02
2022-10-21T02:14:53.405Z,94.23
2022-10-21T02:17:22.465Z,94.51
2022-10-21T02:19:49.088Z,94.19
2022-10-21T02:22:22.056Z,94.45
2022-10-21T02:24:51.706Z,94.40
2022-10-21T02:27:19.512Z,94.44
2022-10-21T02:29:48.960Z,94.26
2022-10-21T02:32:37.231Z,94.56
2022-10-21T02:35:04.081Z,94.27
2022-10-21T02:40:11.527Z,94.26
2022-10-21T02:42:44.095Z,94.30
2022-10-21T02:45:10.694Z,93.94
2022-10-21T02:47:39.019Z,94.15
2022-10-21T02:50:06.513Z,93.91
2022-10-21T02:52:33.067Z,94.06
2022-10-21T02:54:59.610Z,93.73
2022-10-21T02:57:26.245Z,94.25
2022-10-21T02:59:52.749Z,94.07
2022-10-21T03:10:32.416Z,93.62
2022-10-21T03:12:59.010Z,93.71
2022-10-21T03:15:25.646Z,93.68
2022-10-21T03:17:52.235Z,93.69
2022-10-21T03:20:18.786Z,93.68
2022-10-21T03:22:45.454Z,93.76
2022-10-21T03:25:12.628Z,93.75
2022-10-21T03:27:39.949Z,93.62
2022-10-21T03:30:07.854Z,93.71
2022-10-21T03:32:35.127Z,93.35
2022-10-21T03:35:01.839Z,93.18
2022-10-21T03:37:28.361Z,93.14
2022-10-21T03:39:54.901Z,93.24
2022-10-21T03:42:21.525Z,93.15
2022-10-21T03:44:48.038Z,93.27
2022-10-21T03:47:14.700Z,93.13
2022-10-21T03:49:41.292Z,93.03
2022-10-21T03:52:07.888Z,93.33
2022-10-21T03:54:34.477Z,93.40
2022-10-21T03:57:01.025Z,93.67
2022-10-21T03:59:27.636Z,93.38
2022-10-21T04:01:54.231Z,93.54
2022-10-21T04:04:20.817Z,93.59
2022-10-21T04:06:47.408Z,93.79
2022-10-21T04:09:14.218Z,93.46
2022-10-21T04:11:40.757Z,93.38
2022-10-21T04:14:11.441Z,93.50
2022-10-21T04:16:41.128Z,93.69
2022-10-21T04:19:07.672Z,93.40
2022-10-21T04:21:34.246Z,93.56
2022-10-21T04:24:00.835Z,93.78
2022-10-21T04:26:27.385Z,93.45
2022-10-21T04:28:54.053Z,93.28
2022-10-21T04:31:20.565Z,93.59
2022-10-21T04:33:47.806Z,93.37
2022-10-21T04:36:14.372Z,93.49
2022-10-21T04:38:40.860Z,93.58
2022-10-21T04:41:07.416Z,93.69
2022-10-21T04:43:34.006Z,93.60
2022-10-21T04:46:00.555Z,93.32
2022-10-21T04:48:27.069Z,93.39
2022-10-21T04:50:54.222Z,92.95
2022-10-21T04:53:21.582Z,93.06
2022-10-21T04:55:54.612Z,92.89
2022-10-21T04:58:22.349Z,92.97
2022-10-21T05:00:50.592Z,92.80
2022-10-21T05:03:17.864Z,92.51
2022-10-21T05:05:44.425Z,91.97
2022-10-21T05:08:11.783Z,92.14
2022-10-21T05:10:38.529Z,92.35
2022-10-21T05:13:06.180Z,93.25
2022-10-21T05:15:33.707Z,94.04
2022-10-21T05:18:00.470Z,93.07
2022-10-21T05:20:27.038Z,92.68
2022-10-21T05:22:53.643Z,91.82
2022-10-21T05:25:21.383Z,88.16
2022-10-21T05:27:48.427Z,87.52
2022-10-21T05:30:15.049Z,87.62
2022-10-21T05:32:42.251Z,88.42
2022-10-21T05:35:09.082Z,88.42
2022-10-21T05:37:35.696Z,87.09
2022-10-21T05:40:04.348Z,84.05
2022-10-21T05:42:30.922Z,83.88
2022-10-21T05:44:57.432Z,85.65
2022-10-21T05:47:24.160Z,85.63
2022-10-21T05:49:51.207Z,86.59
2022-10-21T05:52:17.744Z,86.74
2022-10-21T05:54:44.303Z,86.38
2022-10-21T05:57:10.814Z,86.00
2022-10-21T05:59:37.348Z,87.23
2022-10-21T06:02:03.865Z,88.93
2022-10-21T06:04:32.835Z,90.47
2022-10-21T06:07:01.730Z,91.44
2022-10-21T06:09:28.308Z,92.60
2022-10-21T06:11:54.862Z,92.69
2022-10-21T06:14:21.475Z,92.99
2022-10-21T06:16:48.006Z,92.92
2022-10-21T06:19:14.610Z,92.28
2022-10-21T06:21:41.115Z,92.39
2022-10-21T06:24:07.763Z,92.60
2022-10-21T06:26:36.172Z,92.45
2022-10-21T06:29:03.703Z,92.22
2022-10-21T06:31:30.239Z,91.98
2022-10-21T06:33:56.759Z,92.10
2022-10-21T06:36:23.281Z,91.71
2022-10-21T06:38:49.935Z,91.91
2022-10-21T06:41:18.110Z,91.41
2022-10-21T06:43:44.857Z,91.44
2022-10-21T06:46:13.992Z,91.92
2022-10-21T06:48:40.615Z,91.22
2022-10-21T06:51:10.936Z,91.13
2022-10-21T06:53:39.199Z,91.45
2022-10-21T06:56:16.636Z,91.29
2022-10-21T06:58:46.471Z,91.66
2022-10-21T07:01:27.982Z,91.07
2022-10-21T07:04:06.051Z,90.02
2022-10-21T07:09:05.448Z,90.98
2022-10-21T07:11:32.021Z,90.69
2022-10-21T07:14:00.530Z,90.67
2022-10-21T07:16:29.925Z,90.74
2022-10-21T07:18:56.678Z,90.14
2022-10-21T07:21:25.704Z,90.15
2022-10-21T07:23:55.577Z,90.34
2022-10-21T07:26:25.089Z,89.78
2022-10-21T07:28:52.340Z,89.88
2022-10-21T07:31:20.996Z,89.25
2022-10-21T07:33:48.978Z,89.46
2022-10-21T07:36:19.891Z,89.22
2022-10-21T07:38:48.099Z,88.97
2022-10-21T07:41:20.593Z,88.64
2022-10-21T07:43:48.416Z,88.61
2022-10-21T07:46:15.605Z,89.39
2022-10-21T07:48:42.395Z,88.40
2022-10-21T07:51:12.343Z,89.45
2022-10-21T07:53:40.030Z,88.75
2022-10-21T07:56:30.413Z,88.98
2022-10-21T07:58:57.087Z,88.39
2022-10-21T08:01:24.126Z,87.78
2022-10-21T08:03:53.662Z,87.46
2022-10-21T08:06:20.256Z,87.12
2022-10-21T08:08:47.010Z,87.36
2022-10-21T08:11:30.931Z,86.86
2022-10-21T08:13:57.893Z,87.31
2022-10-21T08:16:25.301Z,85.91
2022-10-21T08:18:51.955Z,87.20
2022-10-21T08:21:18.615Z,87.90
2022-10-21T08:23:45.440Z,86.53
2022-10-21T08:26:15.120Z,86.20
2022-10-21T08:28:42.631Z,86.57
2022-10-21T08:31:12.137Z,86.86
2022-10-21T08:33:39.575Z,87.54
2022-10-21T08:36:07.961Z,87.13
2022-10-21T08:38:34.647Z,87.85
2022-10-21T08:41:02.160Z,87.32
2022-10-21T08:43:33.093Z,87.29
2022-10-21T08:46:06.203Z,87.71
2022-10-21T08:48:41.826Z,87.26
2022-10-21T08:51:19.424Z,88.03
2022-10-21T08:53:48.858Z,87.86
2022-10-21T08:56:19.827Z,87.37
2022-10-21T08:58:51.086Z,86.95
2022-10-21T09:01:23.219Z,87.22
2022-10-21T09:03:54.370Z,87.34
2022-10-21T09:06:37.057Z,86.57
2022-10-21T09:09:22.371Z,86.16
2022-10-21T09:12:19.271Z,85.92
2022-10-21T09:14:48.830Z,85.60
2022-10-21T09:17:34.422Z,86.09
2022-10-21T09:20:12.779Z,85.35
2022-10-21T09:22:45.194Z,85.10
2022-10-21T09:25:17.708Z,85.58
2022-10-21T09:27:55.478Z,84.76
2022-10-21T09:30:23.581Z,85.65
2022-10-21T09:33:01.570Z,85.54
2022-10-21T09:35:37.934Z,84.00
2022-10-21T09:38:10.425Z,83.57
2022-10-21T09:40:37.027Z,82.71
2022-10-21T09:43:05.766Z,81.09
2022-10-21T09:45:35.012Z,80.87
2022-10-21T09:48:16.673Z,81.29
2022-10-21T09:50:48.417Z,80.82
2022-10-21T09:53:45.915Z,80.81
2022-10-21T09:56:29.771Z,80.61
2022-10-21T09:59:08.548Z,81.18
2022-10-21T10:01:36.746Z,80.29
2022-10-21T10:04:21.038Z,80.90
2022-10-21T10:06:47.657Z,80.84
2022-10-21T10:09:33.524Z,80.48
2022-10-21T10:12:23.347Z,79.41
2022-10-21T10:14:50.361Z,79.49
2022-10-21T10:17:26.226Z,79.87
2022-10-21T10:20:04.678Z,79.92
2022-10-21T10:22:38.079Z,77.71
2022-10-21T10:25:11.991Z,77.25
2022-10-21T10:27:59.315Z,77.68
2022-10-21T10:30:36.546Z,77.28
2022-10-21T10:33:10.406Z,76.52
2022-10-21T10:35:38.540Z,76.19
2022-10-21T10:38:05.968Z,75.48
2022-10-21T10:40:41.870Z,73.64
2022-10-21T10:43:20.597Z,74.95
2022-10-21T10:46:10.297Z,74.65
2022-10-21T10:48:39.719Z,75.10
2022-10-21T10:51:23.145Z,76.17
2022-10-21T10:54:16.519Z,75.41
2022-10-21T10:56:52.630Z,75.87
2022-10-21T10:59:45.048Z,75.74
2022-10-21T11:02:12.282Z,75.07
2022-10-21T11:05:05.829Z,75.84
2022-10-21T11:07:39.240Z,74.38
2022-10-21T11:10:37.415Z,75.35
2022-10-21T11:13:10.079Z,75.89
2022-10-21T11:15:45.735Z,74.41
2022-10-21T11:18:25.272Z,74.69
2022-10-21T11:21:09.994Z,73.35
2022-10-21T11:23:57.666Z,74.28
2022-10-21T11:26:44.725Z,74.95
2022-10-21T11:29:32.657Z,75.06
2022-10-21T11:32:16.773Z,75.17
2022-10-21T11:35:28.089Z,75.42
2022-10-21T11:37:57.524Z,75.34
2022-10-21T11:40:36.704Z,75.50
2022-10-21T11:43:45.351Z,75.56
2022-10-21T11:46:45.983Z,75.22
2022-10-21T11:49:46.019Z,75.50
2022-10-21T11:52:27.947Z,74.39
2022-10-21T11:55:10.712Z,74.34
2022-10-21T11:57:40.612Z,74.38
2022-10-21T12:00:18.823Z,73.89
2022-10-21T12:02:58.841Z,73.48
2022-10-21T12:05:37.127Z,71.91
2022-10-21T12:08:27.517Z,71.70
2022-10-21T12:11:10.656Z,71.29
2022-10-21T12:13:49.845Z,71.17
2022-10-21T12:16:20.240Z,71.28
2022-10-21T12:19:10.582Z,70.93
2022-10-21T12:21:40.263Z,70.08
2022-10-21T12:24:24.855Z,67.68
2022-10-21T12:27:25.101Z,67.71
2022-10-21T12:30:00.610Z,66.83
2022-10-21T12:32:33.161Z,67.79
2022-10-21T12:35:01.211Z,67.79
2022-10-21T12:38:05.496Z,67.69
2022-10-21T12:40:33.167Z,68.01
2022-10-21T12:43:23.191Z,68.75
2022-10-21T12:46:08.078Z,69.25
2022-10-21T12:48:43.325Z,70.10
2022-10-21T12:51:23.883Z,70.85
2022-10-21T12:54:05.768Z,70.79
2022-10-21T12:56:45.454Z,71.16
2022-10-21T12:59:29.551Z,71.42
2022-10-21T13:02:05.258Z,71.67
2022-10-21T13:04:31.756Z,71.76
2022-10-21T13:07:01.246Z,71.41
2022-10-21T13:09:35.320Z,71.23
2022-10-21T13:12:15.834Z,70.16
2022-10-21T13:14:46.800Z,70.00
2022-10-21T13:17:27.068Z,68.50
2022-10-21T13:20:17.416Z,66.92
2022-10-21T13:22:46.600Z,68.28
2022-10-21T13:25:16.352Z,67.83
2022-10-21T13:27:47.922Z,67.79
2022-10-21T13:30:33.486Z,67.71
2022-10-21T13:33:15.048Z,67.58
2022-10-21T13:35:45.443Z,68.62
2022-10-21T13:38:23.281Z,68.21
2022-10-21T13:40:53.401Z,68.20
2022-10-21T13:43:29.610Z,68.84
2022-10-21T13:46:07.312Z,68.96
2022-10-21T13:48:42.199Z,68.77
2022-10-21T13:51:19.943Z,69.72
2022-10-21T13:53:47.061Z,69.84
2022-10-21T13:56:32.024Z,70.16
2022-10-21T13:58:59.029Z,69.75
2022-10-21T14:01:49.870Z,70.25
2022-10-21T14:04:26.543Z,69.31
2022-10-21T14:06:58.446Z,69.61
2022-10-21T14:09:30.394Z,70.42
2022-10-21T14:12:00.471Z,70.34
2022-10-21T14:14:29.071Z,70.20
2022-10-21T14:16:59.303Z,69.14
2022-10-21T14:19:30.927Z,68.23
2022-10-21T14:21:59.637Z,68.53
2022-10-21T14:24:36.869Z,68.62
2022-10-21T14:27:04.667Z,68.25
2022-10-21T14:29:34.765Z,68.21
2022-10-21T14:32:03.179Z,68.00
2022-10-21T14:34:32.390Z,67.96
2022-10-21T14:37:18.383Z,67.98
2022-10-21T14:39:45.172Z,67.49
2022-10-21T14:42:21.769Z,68.38
2022-10-21T14:44:52.456Z,69.10
2022-10-21T14:47:21.886Z,69.33
2022-10-21T14:49:51.270Z,69.85
2022-10-21T14:52:43.816Z,69.33
2022-10-21T14:55:14.931Z,69.26
2022-10-21T14:57:53.615Z,69.81
2022-10-21T15:00:30.369Z,69.62
2022-10-21T15:02:58.709Z,69.97
2022-10-21T15:05:49.105Z,70.79
2022-10-21T15:08:22.772Z,70.54
2022-10-21T15:11:00.222Z,71.33
2022-10-21T15:13:27.018Z,71.27
2022-10-21T15:15:55.918Z,70.46
2022-10-21T15:18:43.123Z,70.38
2022-10-21T15:21:25.451Z,71.40
2022-10-21T15:23:57.699Z,70.70
2022-10-21T15:26:35.707Z,70.05
2022-10-21T15:29:20.292Z,69.41
2022-10-21T15:31:47.507Z,69.97
2022-10-21T15:34:16.016Z,71.44
2022-10-21T15:36:44.123Z,71.98
2022-10-21T15:39:11.645Z,71.42
2022-10-21T15:41:38.709Z,71.57
2022-10-21T15:44:17.139Z,71.21
2022-10-21T15:46:47.100Z,71.65
2022-10-21T15:49:24.925Z,72.15
2022-10-21T15:51:51.757Z,72.63
2022-10-21T15:54:20.003Z,73.57
2022-10-21T15:56:49.904Z,74.21
2022-10-21T15:59:24.641Z,74.64
2022-10-21T16:01:52.288Z,75.02
2022-10-21T16:04:19.510Z,75.79
2022-10-21T16:06:49.677Z,76.03
2022-10-21T16:09:22.560Z,76.70
2022-10-21T16:12:06.296Z,77.33
2022-10-21T16:14:32.817Z,78.07
2022-10-21T16:16:59.765Z,78.16
2022-10-21T16:19:26.563Z,78.67
2022-10-21T16:21:53.109Z,79.27
2022-10-21T16:24:19.820Z,79.21
2022-10-21T16:26:49.140Z,79.49
2022-10-21T16:31:51.200Z,81.08
2022-10-21T16:34:18.265Z,81.31
2022-10-21T16:36:44.883Z,81.91
2022-10-21T16:39:24.288Z,81.48
2022-10-21T16:41:51.084Z,82.69
2022-10-21T16:44:18.436Z,83.01
2022-10-21T16:46:55.581Z,83.12
2022-10-21T16:49:25.309Z,83.56
2022-10-21T16:51:53.041Z,83.51
2022-10-21T16:54:22.691Z,84.07
2022-10-21T16:56:52.051Z,83.85
2022-10-21T16:59:21.348Z,84.12
2022-10-21T17:01:47.874Z,83.89
2022-10-21T17:04:14.680Z,83.69
2022-10-21T17:06:41.790Z,83.50
2022-10-21T17:09:08.636Z,83.44
2022-10-21T17:11:38.542Z,83.93
2022-10-21T17:14:07.601Z,84.29
2022-10-21T17:16:34.163Z,83.84
2022-10-21T17:19:00.716Z,84.35
2022-10-21T17:21:32.625Z,84.67
2022-10-21T17:24:02.081Z,85.30
2022-10-21T17:26:30.257Z,85.66
2022-10-21T17:28:57.634Z,85.96
2022-10-21T17:31:26.478Z,86.57
2022-10-21T17:33:59.130Z,86.29
2022-10-21T17:36:25.632Z,85.74
2022-10-21T17:38:52.165Z,86.40
2022-10-21T17:41:20.461Z,86.86
2022-10-21T17:43:48.018Z,86.39
2022-10-21T17:46:20.146Z,87.15
2022-10-21T17:48:53.690Z,86.96
2022-10-21T17:51:21.404Z,87.53
2022-10-21T17:53:49.957Z,87.30
2022-10-21T17:56:17.119Z,87.17
2022-10-21T17:58:43.682Z,87.76
2022-10-21T18:01:13.696Z,87.49
2022-10-21T18:03:40.556Z,88.01
2022-10-21T18:06:09.776Z,87.94
2022-10-21T18:08:36.756Z,88.23
2022-10-21T18:11:08.578Z,88.75
2022-10-21T18:13:35.833Z,88.47
2022-10-21T18:16:11.879Z,89.16
2022-10-21T18:18:38.953Z,89.15
2022-10-21T18:21:15.137Z,89.69
2022-10-21T18:23:44.223Z,89.78
2022-10-21T18:26:19.576Z,89.32
2022-10-21T18:28:50.361Z,89.59
2022-10-21T18:31:20.530Z,89.90
2022-10-21T18:33:47.650Z,89.44
2022-10-21T18:36:15.746Z,90.08
2022-10-21T18:38:42.722Z,89.88
2022-10-21T18:41:20.084Z,90.20
2022-10-21T18:43:47.985Z,91.05
2022-10-21T18:46:14.571Z,90.69
2022-10-21T18:48:41.598Z,90.24
2022-10-21T18:51:09.930Z,90.95
2022-10-21T18:53:37.667Z,90.97
2022-10-21T18:56:10.323Z,91.00
2022-10-21T18:58:37.640Z,91.27
2022-10-21T19:01:05.387Z,90.98
2022-10-21T19:03:32.468Z,91.22
2022-10-21T19:06:14.557Z,90.97
2022-10-21T19:08:41.210Z,90.69
2022-10-21T19:11:07.762Z,90.68
2022-10-21T19:13:34.282Z,91.33
2022-10-21T19:16:00.807Z,90.50
2022-10-21T19:18:27.622Z,90.45
2022-10-21T19:20:54.250Z,90.68
2022-10-21T19:23:20.738Z,91.21
2022-10-21T19:25:47.254Z,91.37
2022-10-21T19:28:13.830Z,90.85
2022-10-21T19:30:40.733Z,91.89
2022-10-21T19:33:07.237Z,91.35
2022-10-21T19:35:33.784Z,91.21
2022-10-21T19:38:03.216Z,91.47
2022-10-21T19:40:34.601Z,91.27
2022-10-21T19:43:01.105Z,90.98
2022-10-21T19:45:27.809Z,91.93
2022-10-21T19:47:54.343Z,91.22
2022-10-21T19:50:20.866Z,91.02
2022-10-21T19:52:47.470Z,91.38
2022-10-21T19:55:14.066Z,91.57
2022-10-21T19:57:40.728Z,92.30
2022-10-21T20:00:08.107Z,92.15
2022-10-21T20:02:34.757Z,91.76
2022-10-21T20:05:01.391Z,91.87
2022-10-21T20:07:27.997Z,92.31
2022-10-21T20:09:54.524Z,92.38
2022-10-21T20:12:21.038Z,91.59
2022-10-21T20:14:47.582Z,91.96
2022-10-21T20:17:16.139Z,92.10
2022-10-21T20:19:50.792Z,92.43
2022-10-21T20:22:17.888Z,92.05
2022-10-21T20:24:46.319Z,91.80
2022-10-21T20:27:13.497Z,91.50
2022-10-21T20:29:40.042Z,91.16
2022-10-21T20:32:06.606Z,92.20
2022-10-21T20:34:34.135Z,91.88
2022-10-21T20:37:04.029Z,91.28
2022-10-21T20:39:30.521Z,91.82
2022-10-21T20:41:57.174Z,91.48
2022-10-21T20:44:23.670Z,91.54
2022-10-21T20:46:50.224Z,91.96
2022-10-21T20:49:16.764Z,91.99
2022-10-21T20:51:43.467Z,92.15
2022-10-21T20:54:14.279Z,91.93
2022-10-21T20:56:41.728Z,92.14
2022-10-21T20:59:11.685Z,92.14
2022-10-21T21:01:42.021Z,92.13
2022-10-21T21:04:11.659Z,92.07
2022-10-21T21:06:44.031Z,91.56
2022-10-21T21:14:30.025Z,92.38
2022-10-21T21:16:56.795Z,92.31
2022-10-21T21:19:23.436Z,92.00
2022-10-21T21:21:50.066Z,91.84
2022-10-21T21:24:16.640Z,92.65
2022-10-21T21:26:43.156Z,92.74
2022-10-21T21:29:10.290Z,92.99
2022-10-21T21:31:38.564Z,92.04
2022-10-21T21:34:05.904Z,92.63
2022-10-21T21:36:32.580Z,93.46
2022-10-21T21:38:59.278Z,93.44
2022-10-21T21:41:26.760Z,93.35
2022-10-21T21:43:54.771Z,93.56
2022-10-21T21:46:23.972Z,94.38
2022-10-21T21:48:59.584Z,93.24
2022-10-21T21:51:30.344Z,94.04
2022-10-21T21:53:57.790Z,93.84
2022-10-21T21:56:26.618Z,94.29
2022-10-21T21:58:55.796Z,93.66
2022-10-21T22:01:25.316Z,93.47
2022-10-21T22:03:52.322Z,94.06
2022-10-21T22:06:20.929Z,94.32
2022-10-21T22:08:47.748Z,94.20
2022-10-21T22:11:17.630Z,94.86
2022-10-21T22:13:44.655Z,94.61
2022-10-21T22:16:13.095Z,94.48
2022-10-21T22:18:39.714Z,94.81
2022-10-21T22:21:09.306Z,94.68
2022-10-21T22:23:37.475Z,94.20
2022-10-21T22:26:04.599Z,94.53
2022-10-21T22:28:31.650Z,94.83
2022-10-21T22:31:06.705Z,94.41
2022-10-21T22:33:33.912Z,94.83
2022-10-21T22:36:00.976Z,94.39
2022-10-21T22:38:29.375Z,94.54
2022-10-21T22:40:58.187Z,94.51
2022-10-21T22:43:26.343Z,94.98
2022-10-21T22:45:57.673Z,94.27
2022-10-21T22:48:36.677Z,95.00
2022-10-21T22:51:03.183Z,94.87
2022-10-21T22:53:29.757Z,95.07
2022-10-21T22:55:56.326Z,94.81
2022-10-21T22:58:23.326Z,94.51
2022-10-21T23:00:50.695Z,93.79
2022-10-21T23:03:18.946Z,94.32
2022-10-21T23:05:47.054Z,94.51
2022-10-21T23:08:13.917Z,93.99
2022-10-21T23:10:40.506Z,94.29
2022-10-21T23:13:07.062Z,94.51
2022-10-21T23:15:34.787Z,94.07
2022-10-21T23:18:02.147Z,94.27
2022-10-21T23:20:28.721Z,93.99
2022-10-21T23:22:55.285Z,94.13
2022-10-21T23:25:23.096Z,93.93
2022-10-21T23:27:50.166Z,93.34
2022-10-21T23:30:17.733Z,93.84
2022-10-21T23:32:44.636Z,93.64
2022-10-21T23:35:11.183Z,94.00
2022-10-21T23:37:38.059Z,93.65
2022-10-21T23:40:05.776Z,94.43
2022-10-21T23:42:32.338Z,93.84
2022-10-21T23:44:58.841Z,93.72
2022-10-21T23:47:25.390Z,93.96
2022-10-21T23:49:51.957Z,93.93
2022-10-21T23:52:18.471Z,93.70
2022-10-21T23:54:44.967Z,93.74
2022-10-21T23:57:11.560Z,93.66
2022-10-21T23:59:38.108Z,93.58
